Time;durP1;ratioP1;P1;durP2;ratioP2;P2;SDS_P1;SDS_P2;PMS_P1;PMS_P2;Temp;Humidity;BMP_temperature;BMP_pressure;BME280_temperature;BME280_humidity;BME280_pressure;Samples;Min_cycle;Max_cycle;Signal;HPM_P1;HPM_P2
2023/08/03 00:01:11;;;;;;;6.65;6.05;;;;;;;;;;5089369;28;20218;-87
2023/08/03 00:03:38;;;;;;;4.30;3.90;;;;;;;;;;5086658;28;20285;-86
2023/08/03 00:06:06;;;;;;;3.80;3.55;;;;;;;;;;5087819;28;20265;-89
2023/08/03 00:08:33;;;;;;;3.60;3.40;;;;;;;;;;5088712;28;20202;-87
2023/08/03 00:11:00;;;;;;;3.70;3.40;;;;;;;;;;5088980;28;20286;-87
2023/08/03 00:13:48;;;;;;;3.60;3.33;;;;;;;;;;5088693;28;20312;-86
2023/08/03 00:16:15;;;;;;;3.95;3.65;;;;;;;;;;5088958;28;20202;-88
2023/08/03 00:18:45;;;;;;;4.10;3.80;;;;;;;;;;5088618;28;20232;-87
2023/08/03 00:21:13;;;;;;;4.25;3.95;;;;;;;;;;5082889;28;20222;-89
2023/08/03 00:23:40;;;;;;;3.40;3.15;;;;;;;;;;5091569;28;20646;-88
2023/08/03 00:26:08;;;;;;;3.50;3.30;;;;;;;;;;5090865;28;20205;-88
2023/08/03 00:28:34;;;;;;;5.63;3.70;;;;;;;;;;5089746;28;20277;-88
2023/08/03 00:34:08;;;;;;;3.50;3.30;;;;;;;;;;5079311;28;20202;-87
2023/08/03 00:37:03;;;;;;;4.55;4.20;;;;;;;;;;5090625;28;20216;-86
2023/08/03 00:39:37;;;;;;;4.18;3.88;;;;;;;;;;5102931;28;20315;-86
2023/08/03 00:42:14;;;;;;;4.03;3.72;;;;;;;;;;5109588;28;20273;-88
2023/08/03 00:44:48;;;;;;;6.15;3.65;;;;;;;;;;5110240;28;20189;-88
2023/08/03 00:47:21;;;;;;;4.30;4.00;;;;;;;;;;5109412;28;20291;-86
2023/08/03 00:49:58;;;;;;;4.32;4.05;;;;;;;;;;5109080;28;20732;-86
2023/08/03 00:52:36;;;;;;;3.83;3.55;;;;;;;;;;5111059;28;20259;-86
2023/08/03 00:55:17;;;;;;;4.40;4.10;;;;;;;;;;5109761;28;20236;-87
2023/08/03 00:58:00;;;;;;;3.78;3.58;;;;;;;;;;5109933;28;20193;-86
2023/08/03 01:00:27;;;;;;;4.47;3.78;;;;;;;;;;5102967;28;20238;-85
2023/08/03 01:03:01;;;;;;;4.75;4.25;;;;;;;;;;5089564;28;20213;-88
2023/08/03 01:05:47;;;;;;;4.40;4.10;;;;;;;;;;5090436;28;20194;-87
2023/08/03 01:08:27;;;;;;;3.78;3.47;;;;;;;;;;5091985;28;20678;-87
2023/08/03 01:11:03;;;;;;;5.05;4.50;;;;;;;;;;5102951;28;20212;-86
2023/08/03 01:13:30;;;;;;;4.13;3.75;;;;;;;;;;5113818;28;20206;-88
2023/08/03 01:18:57;;;;;;;4.32;3.90;;;;;;;;;;5087560;28;20234;-85
2023/08/03 01:21:53;;;;;;;4.13;3.83;;;;;;;;;;5083436;28;20229;-88
2023/08/03 01:24:35;;;;;;;4.18;3.60;;;;;;;;;;5083250;28;20209;-86
2023/08/03 01:27:12;;;;;;;4.15;3.85;;;;;;;;;;5087789;28;20217;-86
2023/08/03 01:29:56;;;;;;;4.55;4.18;;;;;;;;;;5089622;28;20712;-88
2023/08/03 01:32:30;;;;;;;3.75;3.33;;;;;;;;;;5082537;28;20194;-86
2023/08/03 01:35:02;;;;;;;4.10;3.90;;;;;;;;;;5096827;28;20277;-83
2023/08/03 01:37:54;;;;;;;4.47;4.18;;;;;;;;;;5101437;28;20243;-84
2023/08/03 01:43:11;;;;;;;4.07;3.78;;;;;;;;;;5096341;28;20663;-87
2023/08/03 01:45:38;;;;;;;4.80;3.80;;;;;;;;;;5100431;28;20214;-86
2023/08/03 01:48:05;;;;;;;4.65;4.25;;;;;;;;;;5105665;28;20266;-87
2023/08/03 01:50:34;;;;;;;5.10;4.03;;;;;;;;;;5110683;28;20194;-85
2023/08/03 01:53:00;;;;;;;8.43;4.30;;;;;;;;;;5109888;28;20216;-87
2023/08/03 01:55:28;;;;;;;5.22;4.72;;;;;;;;;;5093362;28;20205;-87
2023/08/03 01:57:55;;;;;;;6.40;4.43;;;;;;;;;;5090976;28;20194;-88
2023/08/03 02:00:24;;;;;;;4.35;3.65;;;;;;;;;;5089960;28;20317;-87
2023/08/03 02:02:52;;;;;;;4.72;4.30;;;;;;;;;;5089774;28;20289;-87
2023/08/03 02:05:19;;;;;;;7.60;4.07;;;;;;;;;;5089333;28;20271;-86
2023/08/03 02:07:46;;;;;;;5.00;4.38;;;;;;;;;;5089214;28;20218;-88
2023/08/03 02:10:14;;;;;;;4.38;4.05;;;;;;;;;;5088665;28;20190;-86
2023/08/03 02:12:41;;;;;;;4.85;4.30;;;;;;;;;;5088786;28;20229;-87
2023/08/03 02:15:08;;;;;;;4.50;4.25;;;;;;;;;;5089261;28;20225;-87
2023/08/03 02:17:36;;;;;;;4.22;3.88;;;;;;;;;;5090086;28;20224;-86
2023/08/03 02:20:03;;;;;;;4.25;3.95;;;;;;;;;;5093722;28;20297;-86
2023/08/03 02:22:30;;;;;;;3.97;3.72;;;;;;;;;;5090265;28;20222;-86
2023/08/03 02:24:57;;;;;;;4.97;4.57;;;;;;;;;;5088711;28;20198;-89
2023/08/03 02:27:24;;;;;;;4.68;4.28;;;;;;;;;;5088913;28;20252;-88
2023/08/03 02:29:51;;;;;;;4.45;4.05;;;;;;;;;;5092485;28;20209;-87
2023/08/03 02:32:19;;;;;;;4.15;3.88;;;;;;;;;;5092735;28;20205;-87
2023/08/03 02:34:47;;;;;;;4.20;3.90;;;;;;;;;;5091732;28;20700;-86
2023/08/03 02:37:14;;;;;;;4.82;3.97;;;;;;;;;;5092448;28;20198;-87
2023/08/03 02:39:40;;;;;;;4.28;3.97;;;;;;;;;;5091790;28;20348;-88
2023/08/03 02:42:07;;;;;;;4.45;4.15;;;;;;;;;;5092304;28;20209;-87
2023/08/03 02:44:34;;;;;;;6.13;4.13;;;;;;;;;;5092504;28;20214;-86
2023/08/03 02:47:01;;;;;;;4.85;4.45;;;;;;;;;;5092266;28;20198;-87
2023/08/03 02:49:28;;;;;;;4.75;4.20;;;;;;;;;;5092020;28;20198;-87
2023/08/03 02:51:56;;;;;;;5.53;4.10;;;;;;;;;;5092990;28;20206;-86
2023/08/03 02:54:23;;;;;;;4.88;4.50;;;;;;;;;;5091588;28;20248;-87
2023/08/03 02:56:52;;;;;;;4.47;4.10;;;;;;;;;;5093006;28;20244;-86
2023/08/03 02:59:19;;;;;;;5.68;4.13;;;;;;;;;;5094555;28;20256;-88
2023/08/03 03:01:48;;;;;;;4.60;4.00;;;;;;;;;;5096568;28;20285;-88
2023/08/03 03:04:16;;;;;;;6.72;4.55;;;;;;;;;;5097703;28;20273;-86
2023/08/03 03:06:43;;;;;;;8.43;4.47;;;;;;;;;;5093019;28;20277;-86
2023/08/03 03:09:11;;;;;;;4.38;3.97;;;;;;;;;;5093176;28;20569;-86
2023/08/03 03:11:38;;;;;;;4.68;4.28;;;;;;;;;;5094477;28;20766;-85
2023/08/03 03:14:05;;;;;;;4.43;4.13;;;;;;;;;;5092647;28;20198;-86
2023/08/03 03:16:32;;;;;;;5.15;4.60;;;;;;;;;;5092513;28;20334;-87
2023/08/03 03:19:00;;;;;;;5.53;4.82;;;;;;;;;;5092187;28;20194;-86
2023/08/03 03:21:27;;;;;;;4.60;4.20;;;;;;;;;;5092569;28;20241;-88
2023/08/03 03:23:54;;;;;;;5.85;5.35;;;;;;;;;;5091373;28;20272;-86
2023/08/03 03:26:22;;;;;;;7.72;4.85;;;;;;;;;;5091935;28;20218;-88
2023/08/03 03:28:49;;;;;;;4.97;4.50;;;;;;;;;;5092517;28;20244;-87
2023/08/03 03:31:16;;;;;;;5.88;5.22;;;;;;;;;;5092676;28;20267;-87
2023/08/03 03:33:42;;;;;;;4.65;4.22;;;;;;;;;;5092282;28;20198;-87
2023/08/03 03:36:09;;;;;;;5.72;5.10;;;;;;;;;;5092418;28;20585;-88
2023/08/03 03:38:36;;;;;;;7.28;4.35;;;;;;;;;;5092279;28;20305;-86
2023/08/03 03:41:03;;;;;;;4.95;4.60;;;;;;;;;;5092338;28;20671;-86
2023/08/03 03:43:31;;;;;;;5.68;4.75;;;;;;;;;;5092353;28;20251;-88
2023/08/03 03:45:59;;;;;;;5.28;4.78;;;;;;;;;;5091611;28;20205;-86
2023/08/03 03:48:26;;;;;;;5.70;5.20;;;;;;;;;;5092331;28;20190;-86
2023/08/03 03:50:53;;;;;;;6.35;4.00;;;;;;;;;;5092460;28;20224;-89
2023/08/03 03:53:20;;;;;;;5.70;4.80;;;;;;;;;;5091908;28;20669;-87
2023/08/03 03:55:46;;;;;;;5.05;4.43;;;;;;;;;;5092761;28;20204;-87
2023/08/03 03:58:13;;;;;;;6.55;4.30;;;;;;;;;;5092228;28;20202;-87
2023/08/03 04:00:41;;;;;;;5.13;4.60;;;;;;;;;;5091501;28;20246;-87
2023/08/03 04:03:08;;;;;;;7.78;5.32;;;;;;;;;;5091472;28;20194;-87
2023/08/03 04:05:36;;;;;;;6.18;5.47;;;;;;;;;;5091322;28;20194;-86
2023/08/03 04:08:04;;;;;;;5.32;4.93;;;;;;;;;;5091018;28;20205;-87
2023/08/03 04:10:31;;;;;;;5.10;4.63;;;;;;;;;;5090969;28;20587;-86
2023/08/03 04:12:59;;;;;;;9.23;4.65;;;;;;;;;;5091338;28;20222;-86
2023/08/03 04:15:26;;;;;;;5.30;4.80;;;;;;;;;;5090473;28;20290;-85
2023/08/03 04:17:57;;;;;;;5.20;4.80;;;;;;;;;;5090831;28;20603;-86
2023/08/03 04:20:26;;;;;;;5.85;5.43;;;;;;;;;;5090661;28;20245;-86
2023/08/03 04:22:53;;;;;;;6.68;4.88;;;;;;;;;;5089180;28;20243;-87
2023/08/03 04:25:20;;;;;;;7.60;5.18;;;;;;;;;;5090067;28;20202;-86
2023/08/03 04:27:47;;;;;;;7.43;5.30;;;;;;;;;;5090377;28;20711;-86
2023/08/03 04:30:14;;;;;;;5.75;5.18;;;;;;;;;;5089618;28;20660;-86
2023/08/03 04:32:41;;;;;;;6.07;5.57;;;;;;;;;;5089999;28;20226;-86
2023/08/03 04:35:11;;;;;;;4.90;4.45;;;;;;;;;;5090513;28;20495;-86
2023/08/03 04:37:38;;;;;;;7.07;5.65;;;;;;;;;;5088945;28;20654;-86
2023/08/03 04:40:05;;;;;;;5.38;5.03;;;;;;;;;;5089219;28;20221;-86
2023/08/03 04:42:32;;;;;;;9.32;6.18;;;;;;;;;;5090055;28;20687;-86
2023/08/03 04:44:59;;;;;;;6.32;5.53;;;;;;;;;;5090065;28;20194;-86
2023/08/03 04:47:25;;;;;;;5.60;5.10;;;;;;;;;;5089481;28;20200;-86
2023/08/03 04:49:53;;;;;;;6.75;6.07;;;;;;;;;;5089821;28;20197;-87
2023/08/03 04:52:22;;;;;;;5.47;5.07;;;;;;;;;;5090033;28;20198;-86
2023/08/03 04:54:48;;;;;;;5.90;5.30;;;;;;;;;;5089918;28;20193;-86
2023/08/03 04:57:15;;;;;;;5.55;4.93;;;;;;;;;;5090085;28;20735;-86
2023/08/03 04:59:42;;;;;;;6.05;5.47;;;;;;;;;;5088833;28;20264;-86
2023/08/03 05:02:09;;;;;;;5.55;5.05;;;;;;;;;;5090883;28;20204;-86
2023/08/03 05:04:36;;;;;;;5.78;5.18;;;;;;;;;;5101710;28;20263;-86
2023/08/03 05:07:02;;;;;;;8.77;5.80;;;;;;;;;;5106770;28;20249;-86
2023/08/03 05:09:31;;;;;;;6.10;5.60;;;;;;;;;;5111354;28;20244;-85
2023/08/03 05:11:58;;;;;;;6.38;5.78;;;;;;;;;;5112919;28;20210;-85
2023/08/03 05:14:25;;;;;;;9.57;6.03;;;;;;;;;;5104396;28;20228;-85
2023/08/03 05:16:52;;;;;;;8.35;5.95;;;;;;;;;;5105009;28;20220;-86
2023/08/03 05:19:18;;;;;;;6.70;6.10;;;;;;;;;;5099130;28;20209;-85
2023/08/03 05:21:45;;;;;;;6.63;6.07;;;;;;;;;;5091355;28;20264;-86
2023/08/03 05:24:12;;;;;;;8.15;5.65;;;;;;;;;;5092405;28;20193;-86
2023/08/03 05:26:41;;;;;;;5.75;5.38;;;;;;;;;;5090460;28;20201;-86
2023/08/03 05:29:09;;;;;;;7.30;6.57;;;;;;;;;;5090793;28;20258;-86
2023/08/03 05:31:36;;;;;;;6.82;6.15;;;;;;;;;;5091380;28;20217;-87
2023/08/03 05:34:03;;;;;;;6.55;5.97;;;;;;;;;;5091485;28;20268;-86
2023/08/03 05:36:37;;;;;;;6.57;5.97;;;;;;;;;;5092230;28;20679;-87
2023/08/03 05:39:05;;;;;;;6.25;5.82;;;;;;;;;;5090642;28;20228;-86
2023/08/03 05:41:34;;;;;;;7.18;6.68;;;;;;;;;;5089576;28;20712;-87
2023/08/03 05:44:04;;;;;;;6.65;5.95;;;;;;;;;;5088927;28;20194;-87
2023/08/03 05:46:33;;;;;;;6.13;5.70;;;;;;;;;;5089786;28;20216;-86
2023/08/03 05:49:02;;;;;;;6.60;6.00;;;;;;;;;;5089893;28;20266;-89
2023/08/03 05:51:31;;;;;;;6.28;5.63;;;;;;;;;;5090374;28;20209;-86
2023/08/03 05:53:59;;;;;;;6.47;5.85;;;;;;;;;;5090204;28;20204;-86
2023/08/03 05:56:25;;;;;;;6.30;5.70;;;;;;;;;;5091528;28;20219;-85
2023/08/03 05:58:54;;;;;;;7.35;6.65;;;;;;;;;;5082560;28;20253;-87
2023/08/03 06:04:15;;;;;;;7.15;6.55;;;;;;;;;;5101717;28;20194;-87
2023/08/03 06:06:41;;;;;;;8.27;6.70;;;;;;;;;;5096321;28;20267;-86
2023/08/03 06:09:11;;;;;;;7.22;6.63;;;;;;;;;;5083794;28;20208;-85
2023/08/03 06:11:37;;;;;;;6.72;6.22;;;;;;;;;;5094035;28;20316;-86
2023/08/03 06:14:05;;;;;;;7.75;7.15;;;;;;;;;;5094190;28;20280;-86
2023/08/03 06:16:33;;;;;;;6.88;6.15;;;;;;;;;;5092416;28;20681;-87
2023/08/03 06:19:00;;;;;;;6.03;5.57;;;;;;;;;;5092769;28;20208;-87
2023/08/03 06:21:28;;;;;;;6.72;6.28;;;;;;;;;;5092248;28;20240;-86
2023/08/03 06:24:01;;;;;;;7.38;6.40;;;;;;;;;;5092380;28;20646;-87
2023/08/03 06:26:31;;;;;;;7.75;6.55;;;;;;;;;;5092018;28;20216;-84
2023/08/03 06:29:00;;;;;;;6.32;5.82;;;;;;;;;;5089460;28;20215;-85
2023/08/03 06:31:31;;;;;;;6.35;5.75;;;;;;;;;;5091633;28;20270;-85
2023/08/03 06:34:03;;;;;;;6.13;5.72;;;;;;;;;;5092967;28;20200;-86
2023/08/03 06:36:30;;;;;;;6.55;6.05;;;;;;;;;;5091360;28;20635;-85
2023/08/03 06:38:58;;;;;;;6.05;5.57;;;;;;;;;;5090797;28;20198;-87
2023/08/03 06:41:25;;;;;;;6.70;6.10;;;;;;;;;;5090403;28;20232;-84
2023/08/03 06:43:52;;;;;;;7.75;5.60;;;;;;;;;;5092599;28;20694;-86
2023/08/03 06:46:19;;;;;;;6.85;6.28;;;;;;;;;;5092759;28;20193;-88
2023/08/03 06:48:51;;;;;;;6.93;6.32;;;;;;;;;;5094134;28;20211;-84
2023/08/03 06:51:19;;;;;;;5.97;5.57;;;;;;;;;;5091503;28;20229;-84
2023/08/03 06:53:47;;;;;;;7.57;5.75;;;;;;;;;;5091630;28;20201;-85
2023/08/03 06:56:15;;;;;;;6.13;5.72;;;;;;;;;;5091173;28;20208;-87
2023/08/03 06:58:42;;;;;;;5.85;5.45;;;;;;;;;;5091283;28;20198;-86
2023/08/03 07:01:20;;;;;;;6.22;5.68;;;;;;;;;;5093493;28;20221;-85
2023/08/03 07:03:47;;;;;;;7.72;5.80;;;;;;;;;;5091793;28;20604;-87
2023/08/03 07:06:14;;;;;;;6.47;5.88;;;;;;;;;;5091498;28;20638;-88
2023/08/03 07:08:42;;;;;;;5.55;5.15;;;;;;;;;;5090202;28;20696;-87
2023/08/03 07:11:08;;;;;;;5.72;5.25;;;;;;;;;;5091738;28;20220;-86
2023/08/03 07:13:35;;;;;;;6.45;6.05;;;;;;;;;;5090088;28;20225;-86
2023/08/03 07:16:11;;;;;;;5.75;5.35;;;;;;;;;;5091513;28;20674;-87
2023/08/03 07:18:38;;;;;;;6.13;5.35;;;;;;;;;;5091547;28;20212;-86
2023/08/03 07:21:05;;;;;;;6.95;6.53;;;;;;;;;;5091685;28;20275;-87
2023/08/03 07:23:33;;;;;;;6.55;6.07;;;;;;;;;;5089794;28;20196;-87
2023/08/03 07:26:02;;;;;;;6.30;5.90;;;;;;;;;;5090994;28;20247;-87
2023/08/03 07:28:29;;;;;;;5.90;5.53;;;;;;;;;;5090209;28;20197;-86
2023/08/03 07:30:55;;;;;;;5.90;5.38;;;;;;;;;;5090834;28;20237;-86
2023/08/03 07:33:22;;;;;;;6.00;5.50;;;;;;;;;;5093645;28;20204;-86
2023/08/03 07:35:49;;;;;;;6.45;6.00;;;;;;;;;;5089745;28;20459;-87
2023/08/03 07:38:15;;;;;;;6.63;6.18;;;;;;;;;;5089196;28;20289;-87
2023/08/03 07:40:49;;;;;;;7.10;6.50;;;;;;;;;;5089288;28;20221;-87
2023/08/03 07:43:17;;;;;;;6.68;5.82;;;;;;;;;;5089899;28;20198;-85
2023/08/03 07:45:44;;;;;;;6.38;5.78;;;;;;;;;;5089674;28;20235;-87
2023/08/03 07:48:11;;;;;;;8.38;6.00;;;;;;;;;;5090283;28;20276;-86
2023/08/03 07:50:38;;;;;;;7.65;5.53;;;;;;;;;;5090227;28;20218;-86
2023/08/03 07:53:05;;;;;;;7.22;6.40;;;;;;;;;;5089002;28;20221;-87
2023/08/03 07:55:33;;;;;;;7.82;6.05;;;;;;;;;;5089971;28;20212;-87
2023/08/03 07:58:00;;;;;;;6.32;5.80;;;;;;;;;;5090369;28;20582;-87
2023/08/03 08:00:28;;;;;;;6.18;5.72;;;;;;;;;;5089641;28;20202;-85
2023/08/03 08:02:55;;;;;;;6.38;5.78;;;;;;;;;;5090428;28;20205;-85
2023/08/03 08:05:23;;;;;;;6.68;6.20;;;;;;;;;;5090116;28;20284;-86
2023/08/03 08:07:50;;;;;;;9.75;6.25;;;;;;;;;;5089288;28;20194;-86
2023/08/03 08:10:16;;;;;;;7.95;6.30;;;;;;;;;;5089488;28;20208;-86
2023/08/03 08:12:43;;;;;;;6.47;5.75;;;;;;;;;;5089006;28;20231;-86
2023/08/03 08:15:10;;;;;;;6.72;6.22;;;;;;;;;;5089390;28;20659;-87
2023/08/03 08:17:39;;;;;;;6.72;6.13;;;;;;;;;;5089709;28;20193;-87
2023/08/03 08:20:06;;;;;;;5.85;5.45;;;;;;;;;;5089450;28;20240;-87
2023/08/03 08:22:34;;;;;;;6.80;5.78;;;;;;;;;;5088172;28;20233;-86
2023/08/03 08:25:00;;;;;;;6.18;5.65;;;;;;;;;;5090270;28;20212;-86
2023/08/03 08:27:28;;;;;;;6.82;6.30;;;;;;;;;;5089141;28;20205;-85
2023/08/03 08:29:56;;;;;;;6.00;5.53;;;;;;;;;;5090155;28;20216;-85
2023/08/03 08:32:22;;;;;;;6.93;6.43;;;;;;;;;;5090343;28;20217;-86
2023/08/03 08:34:51;;;;;;;6.35;5.85;;;;;;;;;;5078174;28;20236;-85
2023/08/03 08:37:17;;;;;;;6.57;5.30;;;;;;;;;;5080225;28;20242;-86
2023/08/03 08:39:44;;;;;;;6.70;6.20;;;;;;;;;;5079413;28;20707;-86
2023/08/03 08:42:11;;;;;;;6.55;6.05;;;;;;;;;;5089286;28;20241;-86
2023/08/03 08:44:38;;;;;;;6.95;6.45;;;;;;;;;;5087243;28;20229;-85
2023/08/03 08:47:06;;;;;;;6.47;5.85;;;;;;;;;;5088236;28;20308;-85
2023/08/03 08:49:33;;;;;;;5.90;5.60;;;;;;;;;;5080021;28;20218;-87
2023/08/03 08:52:02;;;;;;;6.47;5.97;;;;;;;;;;5067939;28;20301;-87
2023/08/03 08:54:32;;;;;;;7.13;6.53;;;;;;;;;;5071691;28;20288;-86
2023/08/03 08:57:03;;;;;;;7.45;6.75;;;;;;;;;;5088356;28;20224;-85
2023/08/03 08:59:32;;;;;;;6.72;6.32;;;;;;;;;;5088469;28;20229;-86
2023/08/03 09:02:01;;;;;;;6.97;6.47;;;;;;;;;;5088778;28;20229;-86
2023/08/03 09:04:29;;;;;;;6.80;6.10;;;;;;;;;;5090733;28;20221;-86
2023/08/03 09:06:56;;;;;;;9.48;6.13;;;;;;;;;;5092010;28;20225;-87
2023/08/03 09:09:29;;;;;;;7.68;6.97;;;;;;;;;;5092355;28;20229;-85
2023/08/03 09:11:57;;;;;;;7.88;7.28;;;;;;;;;;5092800;28;20246;-88
2023/08/03 09:14:24;;;;;;;9.18;6.90;;;;;;;;;;5092388;28;20229;-87
2023/08/03 09:16:52;;;;;;;6.20;5.80;;;;;;;;;;5101036;28;20225;-87
2023/08/03 09:19:37;;;;;;;7.25;6.38;;;;;;;;;;5106161;28;20221;-87
2023/08/03 09:22:04;;;;;;;6.60;6.03;;;;;;;;;;5072356;28;20240;-86
2023/08/03 09:24:33;;;;;;;7.03;6.40;;;;;;;;;;5067673;28;20287;-86
2023/08/03 09:27:00;;;;;;;6.55;6.05;;;;;;;;;;5067147;28;20293;-87
2023/08/03 09:29:31;;;;;;;7.88;7.10;;;;;;;;;;5066144;28;20579;-86
2023/08/03 09:32:02;;;;;;;7.78;7.07;;;;;;;;;;5068075;28;20972;-87
2023/08/03 09:34:38;;;;;;;7.82;6.45;;;;;;;;;;5067763;28;20645;-86
2023/08/03 09:37:06;;;;;;;7.60;6.75;;;;;;;;;;5068344;28;20698;-86
2023/08/03 09:39:34;;;;;;;7.95;7.18;;;;;;;;;;5068923;28;20688;-86
2023/08/03 09:42:04;;;;;;;9.68;6.97;;;;;;;;;;5087357;28;20237;-86
2023/08/03 09:44:31;;;;;;;7.15;6.55;;;;;;;;;;5091648;28;20300;-86
2023/08/03 09:46:58;;;;;;;7.70;6.82;;;;;;;;;;5075596;28;20686;-86
2023/08/03 09:49:26;;;;;;;6.93;6.43;;;;;;;;;;5068633;28;20315;-86
2023/08/03 09:51:53;;;;;;;7.40;6.63;;;;;;;;;;5068521;28;20245;-86
2023/08/03 09:54:24;;;;;;;7.25;6.65;;;;;;;;;;5066193;28;20234;-85
2023/08/03 09:56:54;;;;;;;7.55;6.43;;;;;;;;;;5066275;28;20261;-87
2023/08/03 09:59:24;;;;;;;7.07;6.35;;;;;;;;;;5065769;28;20273;-87
2023/08/03 10:01:53;;;;;;;7.15;6.55;;;;;;;;;;5069743;28;20679;-87
2023/08/03 10:04:21;;;;;;;6.85;6.20;;;;;;;;;;5069546;28;20252;-86
2023/08/03 10:06:50;;;;;;;7.60;6.85;;;;;;;;;;5066480;28;20653;-86
2023/08/03 10:09:22;;;;;;;7.78;7.18;;;;;;;;;;5065935;28;20236;-85
2023/08/03 10:11:52;;;;;;;7.80;7.03;;;;;;;;;;5065310;28;20237;-86
2023/08/03 10:14:23;;;;;;;11.85;7.60;;;;;;;;;;5065658;28;20618;-85
2023/08/03 10:16:49;;;;;;;6.95;6.40;;;;;;;;;;5067016;28;20275;-85
2023/08/03 10:19:17;;;;;;;8.02;6.60;;;;;;;;;;5065544;28;20268;-87
2023/08/03 10:21:44;;;;;;;9.80;7.05;;;;;;;;;;5083697;28;20256;-85
2023/08/03 10:24:12;;;;;;;7.70;7.00;;;;;;;;;;5086690;28;20236;-85
2023/08/03 10:26:39;;;;;;;7.90;7.18;;;;;;;;;;5086143;28;20225;-86
2023/08/03 10:29:27;;;;;;;7.43;6.85;;;;;;;;;;5087200;28;20521;-86
2023/08/03 10:31:55;;;;;;;10.55;7.35;;;;;;;;;;5084265;28;20221;-86
2023/08/03 10:34:27;;;;;;;7.20;6.60;;;;;;;;;;5086737;28;20221;-85
2023/08/03 10:36:56;;;;;;;7.30;6.75;;;;;;;;;;5086470;28;20229;-85
2023/08/03 10:39:46;;;;;;;7.80;6.78;;;;;;;;;;5086764;28;20225;-85
2023/08/03 10:42:21;;;;;;;7.85;7.15;;;;;;;;;;5085289;28;20237;-86
2023/08/03 10:44:49;;;;;;;7.65;7.05;;;;;;;;;;5086600;28;20304;-85
2023/08/03 10:47:27;;;;;;;7.43;6.55;;;;;;;;;;5086631;28;20669;-86
2023/08/03 10:49:55;;;;;;;8.20;6.82;;;;;;;;;;5089851;28;20611;-86
2023/08/03 10:52:24;;;;;;;7.07;6.47;;;;;;;;;;5090119;28;20221;-85
2023/08/03 10:54:52;;;;;;;7.03;6.50;;;;;;;;;;5075790;28;20702;-84
2023/08/03 10:57:29;;;;;;;7.28;6.78;;;;;;;;;;5068608;28;20761;-86
2023/08/03 10:59:56;;;;;;;7.20;6.70;;;;;;;;;;5069930;28;20226;-86
2023/08/03 11:02:25;;;;;;;9.65;6.88;;;;;;;;;;5069100;28;20261;-86
2023/08/03 11:04:54;;;;;;;7.13;6.63;;;;;;;;;;5069431;28;20683;-85
2023/08/03 11:07:22;;;;;;;6.55;6.03;;;;;;;;;;5068952;28;20309;-84
2023/08/03 11:09:51;;;;;;;6.93;6.25;;;;;;;;;;5069222;28;20319;-86
2023/08/03 11:12:18;;;;;;;6.90;6.28;;;;;;;;;;5068260;28;20637;-85
2023/08/03 11:14:45;;;;;;;6.55;5.45;;;;;;;;;;5069623;28;20578;-85
2023/08/03 11:17:14;;;;;;;6.38;5.60;;;;;;;;;;5068963;28;20308;-85
2023/08/03 11:19:41;;;;;;;7.15;6.45;;;;;;;;;;5078282;28;20236;-86
2023/08/03 11:22:10;;;;;;;8.77;7.88;;;;;;;;;;5089733;28;20672;-85
2023/08/03 11:24:37;;;;;;;7.60;6.25;;;;;;;;;;5088998;28;20624;-86
2023/08/03 11:27:04;;;;;;;7.25;6.68;;;;;;;;;;5089001;28;20225;-89
2023/08/03 11:29:31;;;;;;;6.95;6.35;;;;;;;;;;5089240;28;20727;-87
2023/08/03 11:31:58;;;;;;;6.22;5.63;;;;;;;;;;5088335;28;20231;-85
2023/08/03 11:34:25;;;;;;;6.93;6.22;;;;;;;;;;5089250;28;20225;-84
2023/08/03 11:36:53;;;;;;;7.07;6.38;;;;;;;;;;5089120;28;20278;-86
2023/08/03 11:39:21;;;;;;;8.02;6.53;;;;;;;;;;5088518;28;20724;-85
2023/08/03 11:41:49;;;;;;;7.75;6.05;;;;;;;;;;5087696;28;20237;-86
2023/08/03 11:44:21;;;;;;;6.32;5.82;;;;;;;;;;5090100;28;20256;-86
2023/08/03 11:46:49;;;;;;;11.15;7.22;;;;;;;;;;5088571;28;20308;-86
2023/08/03 11:49:18;;;;;;;6.32;5.85;;;;;;;;;;5089471;28;20698;-87
2023/08/03 11:51:48;;;;;;;5.85;5.35;;;;;;;;;;5088923;28;20316;-87
2023/08/03 11:54:24;;;;;;;5.38;4.88;;;;;;;;;;5089188;28;20263;-86
2023/08/03 11:56:54;;;;;;;6.50;5.88;;;;;;;;;;5088145;28;20733;-87
2023/08/03 11:59:24;;;;;;;5.47;5.18;;;;;;;;;;5088402;28;20256;-86
2023/08/03 12:01:56;;;;;;;8.73;4.95;;;;;;;;;;5089189;28;20255;-86
2023/08/03 12:04:58;;;;;;;7.50;5.63;;;;;;;;;;5087739;28;20483;-86
2023/08/03 12:07:50;;;;;;;4.72;4.32;;;;;;;;;;5004986;28;20227;-86
2023/08/03 12:10:19;;;;;;;4.20;3.83;;;;;;;;;;5088313;28;20233;-86
2023/08/03 12:12:46;;;;;;;3.47;3.38;;;;;;;;;;5089165;28;20225;-85
2023/08/03 12:15:12;;;;;;;3.95;3.65;;;;;;;;;;5100632;28;20321;-87
2023/08/03 12:17:42;;;;;;;3.67;3.42;;;;;;;;;;5092558;28;20233;-86
2023/08/03 12:20:12;;;;;;;3.90;3.70;;;;;;;;;;5089127;28;20256;-86
2023/08/03 12:22:49;;;;;;;4.72;3.42;;;;;;;;;;5089774;28;20324;-86
2023/08/03 12:25:19;;;;;;;3.92;3.50;;;;;;;;;;5089548;28;20327;-86
2023/08/03 12:27:48;;;;;;;4.32;3.70;;;;;;;;;;5087364;28;20226;-86
2023/08/03 12:30:14;;;;;;;3.90;3.70;;;;;;;;;;5088629;28;20607;-86
2023/08/03 12:32:41;;;;;;;4.13;3.42;;;;;;;;;;5087023;28;20237;-84
2023/08/03 12:35:10;;;;;;;4.40;4.00;;;;;;;;;;5088447;28;20314;-85
2023/08/03 12:37:37;;;;;;;4.03;3.83;;;;;;;;;;5087704;28;20217;-84
2023/08/03 12:40:06;;;;;;;3.85;3.33;;;;;;;;;;5087288;28;20236;-84
2023/08/03 12:42:33;;;;;;;4.15;3.90;;;;;;;;;;5088019;28;20239;-85
2023/08/03 12:45:03;;;;;;;4.15;3.80;;;;;;;;;;5087705;28;20722;-88
2023/08/03 12:47:30;;;;;;;3.75;3.40;;;;;;;;;;5084123;28;20213;-86
2023/08/03 12:49:58;;;;;;;4.53;4.13;;;;;;;;;;5082027;28;20229;-85
2023/08/03 12:52:25;;;;;;;4.05;3.78;;;;;;;;;;5087474;28;20271;-84
2023/08/03 12:54:55;;;;;;;3.92;3.80;;;;;;;;;;5086081;28;20224;-85
2023/08/03 12:57:25;;;;;;;3.78;3.47;;;;;;;;;;5087354;28;20229;-86
2023/08/03 12:59:53;;;;;;;7.22;3.72;;;;;;;;;;5087447;28;20299;-85
2023/08/03 13:02:21;;;;;;;3.53;3.33;;;;;;;;;;5087969;28;20747;-85
2023/08/03 13:04:50;;;;;;;6.53;3.53;;;;;;;;;;5087501;28;20225;-86
2023/08/03 13:07:17;;;;;;;3.92;3.63;;;;;;;;;;5087569;28;20244;-86
2023/08/03 13:09:46;;;;;;;3.60;3.50;;;;;;;;;;5085996;28;20300;-87
2023/08/03 13:12:17;;;;;;;4.05;3.45;;;;;;;;;;5087166;28;20241;-87
2023/08/03 13:14:45;;;;;;;3.35;3.25;;;;;;;;;;5087710;28;20721;-87
2023/08/03 13:17:12;;;;;;;4.47;3.55;;;;;;;;;;5086541;28;20226;-86
2023/08/03 13:19:41;;;;;;;3.45;3.22;;;;;;;;;;5086745;28;20225;-86
2023/08/03 13:22:07;;;;;;;3.28;3.17;;;;;;;;;;5087404;28;20305;-86
2023/08/03 13:24:34;;;;;;;4.00;3.60;;;;;;;;;;5085593;28;20225;-85
2023/08/03 13:27:13;;;;;;;3.45;3.33;;;;;;;;;;5082550;28;20225;-84
2023/08/03 13:29:43;;;;;;;2.70;2.60;;;;;;;;;;5080081;28;20700;-85
2023/08/03 13:32:12;;;;;;;3.10;2.85;;;;;;;;;;5080876;28;20282;-86
2023/08/03 13:34:40;;;;;;;3.90;3.03;;;;;;;;;;5081260;28;20294;-86
2023/08/03 13:37:07;;;;;;;2.90;2.80;;;;;;;;;;5088618;28;20268;-86
2023/08/03 13:39:34;;;;;;;3.20;3.00;;;;;;;;;;5089881;28;20253;-86
2023/08/03 13:42:01;;;;;;;3.00;2.88;;;;;;;;;;5090748;28;20265;-86
2023/08/03 13:44:27;;;;;;;2.85;2.75;;;;;;;;;;5066783;28;20252;-85
2023/08/03 13:46:56;;;;;;;2.83;2.67;;;;;;;;;;5069095;28;20218;-86
2023/08/03 13:49:22;;;;;;;3.03;2.92;;;;;;;;;;5075872;28;20242;-86
2023/08/03 13:51:50;;;;;;;4.40;4.05;;;;;;;;;;5077900;28;20234;-86
2023/08/03 13:54:18;;;;;;;4.88;3.83;;;;;;;;;;5089314;28;20236;-85
2023/08/03 13:56:45;;;;;;;2.88;2.78;;;;;;;;;;5085469;28;20255;-85
2023/08/03 13:59:12;;;;;;;2.50;2.40;;;;;;;;;;5066756;28;20229;-85
2023/08/03 14:01:39;;;;;;;2.58;2.47;;;;;;;;;;5066099;28;20226;-84
2023/08/03 14:04:08;;;;;;;2.85;2.65;;;;;;;;;;5067114;28;20262;-84
2023/08/03 14:06:35;;;;;;;3.00;2.80;;;;;;;;;;5066876;28;20250;-84
2023/08/03 14:09:03;;;;;;;2.58;2.47;;;;;;;;;;5066096;28;20225;-86
2023/08/03 14:11:31;;;;;;;2.90;2.80;;;;;;;;;;5066589;28;20239;-86
2023/08/03 14:14:01;;;;;;;2.83;2.63;;;;;;;;;;5086766;28;20245;-86
2023/08/03 14:16:27;;;;;;;2.67;2.58;;;;;;;;;;5086533;28;20714;-86
2023/08/03 14:18:54;;;;;;;2.50;2.40;;;;;;;;;;5086565;28;20283;-87
2023/08/03 14:21:22;;;;;;;3.47;3.17;;;;;;;;;;5087400;28;20236;-87
2023/08/03 14:23:49;;;;;;;2.78;2.65;;;;;;;;;;5089195;28;20283;-85
2023/08/03 14:26:19;;;;;;;2.80;2.70;;;;;;;;;;5091113;28;20294;-86
2023/08/03 14:28:46;;;;;;;3.72;2.70;;;;;;;;;;5090819;28;20229;-86
2023/08/03 14:31:14;;;;;;;3.10;2.90;;;;;;;;;;5090637;28;20236;-88
2023/08/03 14:33:43;;;;;;;3.42;3.13;;;;;;;;;;5090270;28;20564;-87
2023/08/03 14:36:11;;;;;;;2.95;2.85;;;;;;;;;;5091633;28;20319;-88
2023/08/03 14:38:39;;;;;;;7.32;3.05;;;;;;;;;;5091756;28;20260;-86
2023/08/03 14:41:05;;;;;;;3.35;3.15;;;;;;;;;;5091616;28;20214;-87
2023/08/03 14:43:35;;;;;;;3.10;3.00;;;;;;;;;;5090865;28;20233;-87
2023/08/03 14:46:03;;;;;;;3.13;2.85;;;;;;;;;;5095200;28;20226;-88
2023/08/03 14:48:30;;;;;;;5.85;3.13;;;;;;;;;;5092624;28;20239;-86
2023/08/03 14:50:57;;;;;;;20.08;3.45;;;;;;;;;;5091920;28;20282;-85
2023/08/03 14:53:24;;;;;;;8.73;3.22;;;;;;;;;;5089150;28;20225;-86
2023/08/03 14:55:59;;;;;;;3.10;2.90;;;;;;;;;;5090370;28;20221;-83
2023/08/03 14:58:26;;;;;;;3.00;2.75;;;;;;;;;;5090275;28;20295;-84
2023/08/03 15:00:55;;;;;;;3.25;2.97;;;;;;;;;;5089687;28;20225;-85
2023/08/03 15:03:22;;;;;;;3.30;3.00;;;;;;;;;;5090294;28;20245;-85
2023/08/03 15:05:49;;;;;;;3.47;3.28;;;;;;;;;;5091397;28;20304;-85